sensor_id;sensor_type;location;lat;lon;timestamp;pressure;altitude;pressure_sealevel;temperature;humidity
4528;BME280;62320;51.520;6.818;2023-08-07T00:06:40;100664.75;;;14.55;100.00
4528;BME280;62320;51.520;6.818;2023-08-07T00:16:42;100676.97;;;14.51;100.00
4528;BME280;62320;51.520;6.818;2023-08-07T00:26:44;100684.78;;;14.51;100.00
4528;BME280;62320;51.520;6.818;2023-08-07T00:36:45;100695.97;;;14.55;100.00
4528;BME280;62320;51.520;6.818;2023-08-07T00:46:47;100695.31;;;14.44;100.00
4528;BME280;62320;51.520;6.818;2023-08-07T00:56:49;100689.28;;;14.42;100.00
4528;BME280;62320;51.520;6.818;2023-08-07T01:06:50;100700.56;;;14.41;100.00
4528;BME280;62320;51.520;6.818;2023-08-07T01:17:09;100703.22;;;14.36;100.00
4528;BME280;62320;51.520;6.818;2023-08-07T01:37:20;100705.03;;;14.31;100.00
4528;BME280;62320;51.520;6.818;2023-08-07T01:47:22;100700.69;;;14.32;100.00
4528;BME280;62320;51.520;6.818;2023-08-07T01:57:24;100705.03;;;14.33;100.00
4528;BME280;62320;51.520;6.818;2023-08-07T02:07:26;100719.81;;;14.27;100.00
4528;BME280;62320;51.520;6.818;2023-08-07T02:17:28;100724.97;;;14.29;100.00
4528;BME280;62320;51.520;6.818;2023-08-07T02:27:31;100728.53;;;14.25;100.00
4528;BME280;62320;51.520;6.818;2023-08-07T02:37:33;100736.41;;;14.20;100.00
4528;BME280;62320;51.520;6.818;2023-08-07T02:47:34;100735.53;;;14.20;100.00
4528;BME280;62320;51.520;6.818;2023-08-07T02:57:36;100747.81;;;14.12;100.00
4528;BME280;62320;51.520;6.818;2023-08-07T03:07:37;100757.31;;;14.13;100.00
4528;BME280;62320;51.520;6.818;2023-08-07T03:17:39;100755.63;;;14.09;100.00
4528;BME280;62320;51.520;6.818;2023-08-07T03:27:40;100746.97;;;14.08;100.00
4528;BME280;62320;51.520;6.818;2023-08-07T03:37:42;100757.44;;;14.05;100.00
4528;BME280;62320;51.520;6.818;2023-08-07T03:47:43;100747.91;;;14.04;100.00
4528;BME280;62320;51.520;6.818;2023-08-07T03:57:45;100750.59;;;13.98;100.00
4528;BME280;62320;51.520;6.818;2023-08-07T04:07:46;100758.38;;;14.00;100.00
4528;BME280;62320;51.520;6.818;2023-08-07T04:17:48;100756.59;;;14.03;100.00
4528;BME280;62320;51.520;6.818;2023-08-07T04:27:50;100754.94;;;13.98;100.00
4528;BME280;62320;51.520;6.818;2023-08-07T04:37:51;100756.66;;;13.99;100.00
4528;BME280;62320;51.520;6.818;2023-08-07T04:47:53;100754.06;;;13.99;100.00
4528;BME280;62320;51.520;6.818;2023-08-07T04:57:55;100748.94;;;13.94;100.00
4528;BME280;62320;51.520;6.818;2023-08-07T05:07:58;100753.31;;;13.89;100.00
4528;BME280;62320;51.520;6.818;2023-08-07T05:18:00;100755.09;;;13.86;100.00
4528;BME280;62320;51.520;6.818;2023-08-07T05:28:01;100745.56;;;13.86;100.00
4528;BME280;62320;51.520;6.818;2023-08-07T05:38:04;100770.69;;;13.86;100.00
4528;BME280;62320;51.520;6.818;2023-08-07T05:48:06;100789.81;;;13.82;100.00
4528;BME280;62320;51.520;6.818;2023-08-07T05:58:08;100789.75;;;13.86;100.00
4528;BME280;62320;51.520;6.818;2023-08-07T06:08:10;100782.78;;;13.88;100.00
4528;BME280;62320;51.520;6.818;2023-08-07T06:18:11;100814.81;;;13.90;100.00
4528;BME280;62320;51.520;6.818;2023-08-07T06:28:13;100817.31;;;13.98;100.00
4528;BME280;62320;51.520;6.818;2023-08-07T06:38:14;100827.69;;;14.01;100.00
4528;BME280;62320;51.520;6.818;2023-08-07T06:48:16;100837.97;;;14.08;100.00
4528;BME280;62320;51.520;6.818;2023-08-07T06:58:17;100844.81;;;14.17;100.00
4528;BME280;62320;51.520;6.818;2023-08-07T07:08:19;100871.59;;;14.23;100.00
4528;BME280;62320;51.520;6.818;2023-08-07T07:18:20;100869.00;;;14.23;100.00
4528;BME280;62320;51.520;6.818;2023-08-07T07:28:22;100886.28;;;14.31;100.00
4528;BME280;62320;51.520;6.818;2023-08-07T07:38:23;100901.75;;;14.38;100.00
4528;BME280;62320;51.520;6.818;2023-08-07T07:48:25;100920.84;;;14.39;100.00
4528;BME280;62320;51.520;6.818;2023-08-07T07:58:26;100938.13;;;14.43;100.00
4528;BME280;62320;51.520;6.818;2023-08-07T08:08:28;100954.53;;;14.51;100.00
4528;BME280;62320;51.520;6.818;2023-08-07T08:18:29;100968.22;;;14.63;100.00
4528;BME280;62320;51.520;6.818;2023-08-07T08:28:31;100982.75;;;14.79;100.00
4528;BME280;62320;51.520;6.818;2023-08-07T08:38:33;100993.81;;;14.95;100.00
4528;BME280;62320;51.520;6.818;2023-08-07T08:48:35;100999.63;;;15.14;100.00
4528;BME280;62320;51.520;6.818;2023-08-07T08:58:40;100999.25;;;15.36;100.00
4528;BME280;62320;51.520;6.818;2023-08-07T09:08:43;101012.03;;;15.56;100.00
4528;BME280;62320;51.520;6.818;2023-08-07T09:18:45;101025.19;;;15.97;100.00
4528;BME280;62320;51.520;6.818;2023-08-07T09:28:46;101032.84;;;16.06;100.00
4528;BME280;62320;51.520;6.818;2023-08-07T09:38:51;101059.16;;;15.94;100.00
4528;BME280;62320;51.520;6.818;2023-08-07T09:48:57;101062.84;;;15.81;100.00
4528;BME280;62320;51.520;6.818;2023-08-07T09:59:00;101062.59;;;15.96;100.00
4528;BME280;62320;51.520;6.818;2023-08-07T10:09:02;101058.13;;;16.03;100.00
4528;BME280;62320;51.520;6.818;2023-08-07T10:19:06;101071.84;;;16.14;100.00
4528;BME280;62320;51.520;6.818;2023-08-07T10:29:11;101066.50;;;16.20;100.00
4528;BME280;62320;51.520;6.818;2023-08-07T10:39:15;101098.19;;;16.00;100.00
4528;BME280;62320;51.520;6.818;2023-08-07T10:49:37;101104.97;;;16.10;100.00
4528;BME280;62320;51.520;6.818;2023-08-07T11:00:04;101093.44;;;16.23;100.00
4528;BME280;62320;51.520;6.818;2023-08-07T11:10:13;101109.72;;;16.37;100.00
4528;BME280;62320;51.520;6.818;2023-08-07T11:20:17;101117.16;;;16.59;100.00
4528;BME280;62320;51.520;6.818;2023-08-07T11:30:18;101136.41;;;16.53;100.00
4528;BME280;62320;51.520;6.818;2023-08-07T11:40:20;101118.94;;;16.57;100.00
4528;BME280;62320;51.520;6.818;2023-08-07T11:50:27;101121.28;;;16.70;100.00
4528;BME280;62320;51.520;6.818;2023-08-07T12:00:29;101130.47;;;16.89;99.50
4528;BME280;62320;51.520;6.818;2023-08-07T12:10:31;101128.38;;;17.08;97.13
4528;BME280;62320;51.520;6.818;2023-08-07T12:20:32;101136.75;;;17.24;95.03
4528;BME280;62320;51.520;6.818;2023-08-07T12:30:34;101138.19;;;17.37;92.91
4528;BME280;62320;51.520;6.818;2023-08-07T12:40:36;101164.28;;;17.38;93.62
4528;BME280;62320;51.520;6.818;2023-08-07T12:50:39;101150.78;;;17.18;96.49
4528;BME280;62320;51.520;6.818;2023-08-07T13:00:41;101136.06;;;17.14;97.09
4528;BME280;62320;51.520;6.818;2023-08-07T13:10:42;101136.88;;;17.16;96.46
4528;BME280;62320;51.520;6.818;2023-08-07T13:20:44;101151.50;;;17.26;92.64
4528;BME280;62320;51.520;6.818;2023-08-07T13:30:45;101139.94;;;17.36;89.70
4528;BME280;62320;51.520;6.818;2023-08-07T13:40:47;101146.59;;;17.49;87.48
4528;BME280;62320;51.520;6.818;2023-08-07T13:50:49;101153.44;;;17.56;88.29
4528;BME280;62320;51.520;6.818;2023-08-07T14:00:50;101158.53;;;17.64;88.10
4528;BME280;62320;51.520;6.818;2023-08-07T14:10:53;101154.81;;;17.72;87.94
4528;BME280;62320;51.520;6.818;2023-08-07T14:20:55;101161.53;;;17.84;86.30
4528;BME280;62320;51.520;6.818;2023-08-07T14:31:07;101155.38;;;17.87;86.47
4528;BME280;62320;51.520;6.818;2023-08-07T14:41:09;101152.81;;;17.85;83.53
4528;BME280;62320;51.520;6.818;2023-08-07T14:51:11;101181.50;;;17.88;80.83
4528;BME280;62320;51.520;6.818;2023-08-07T15:01:13;101179.91;;;17.81;82.59
4528;BME280;62320;51.520;6.818;2023-08-07T15:11:14;101180.88;;;17.77;81.48
4528;BME280;62320;51.520;6.818;2023-08-07T15:21:16;101180.81;;;17.80;78.58
4528;BME280;62320;51.520;6.818;2023-08-07T15:31:19;101197.28;;;17.85;79.14
4528;BME280;62320;51.520;6.818;2023-08-07T15:41:21;101207.75;;;17.85;77.71
4528;BME280;62320;51.520;6.818;2023-08-07T15:51:22;101204.91;;;17.94;79.33
4528;BME280;62320;51.520;6.818;2023-08-07T16:01:24;101213.59;;;17.95;78.88
4528;BME280;62320;51.520;6.818;2023-08-07T16:11:25;101228.25;;;18.03;81.48
4528;BME280;62320;51.520;6.818;2023-08-07T16:21:27;101226.56;;;18.01;80.79
4528;BME280;62320;51.520;6.818;2023-08-07T16:31:28;101231.09;;;17.94;81.41
4528;BME280;62320;51.520;6.818;2023-08-07T16:41:30;101213.66;;;17.93;81.05
4528;BME280;62320;51.520;6.818;2023-08-07T16:51:31;101209.31;;;17.92;81.04
4528;BME280;62320;51.520;6.818;2023-08-07T17:01:33;101212.88;;;17.90;81.08
4528;BME280;62320;51.520;6.818;2023-08-07T17:11:35;101214.09;;;17.73;81.06
4528;BME280;62320;51.520;6.818;2023-08-07T17:21:37;101218.69;;;17.64;80.90
4528;BME280;62320;51.520;6.818;2023-08-07T17:31:38;101228.66;;;17.44;80.90
4528;BME280;62320;51.520;6.818;2023-08-07T17:41:40;101219.91;;;17.45;82.21
4528;BME280;62320;51.520;6.818;2023-08-07T17:51:41;101214.88;;;17.36;82.03
4528;BME280;62320;51.520;6.818;2023-08-07T18:01:43;101209.88;;;17.25;83.17
4528;BME280;62320;51.520;6.818;2023-08-07T18:11:44;101202.09;;;17.22;84.03
4528;BME280;62320;51.520;6.818;2023-08-07T18:21:46;101194.38;;;17.16;84.54
4528;BME280;62320;51.520;6.818;2023-08-07T18:31:49;101195.41;;;17.09;84.73
4528;BME280;62320;51.520;6.818;2023-08-07T18:41:50;101197.41;;;16.95;85.68
4528;BME280;62320;51.520;6.818;2023-08-07T18:51:52;101200.22;;;16.84;85.98
4528;BME280;62320;51.520;6.818;2023-08-07T19:01:53;101200.31;;;16.80;85.81
4528;BME280;62320;51.520;6.818;2023-08-07T19:11:55;101205.66;;;16.72;86.54
4528;BME280;62320;51.520;6.818;2023-08-07T19:21:56;101203.19;;;16.66;86.82
4528;BME280;62320;51.520;6.818;2023-08-07T19:31:58;101199.91;;;16.55;86.93
4528;BME280;62320;51.520;6.818;2023-08-07T19:42:01;101205.25;;;16.46;87.01
4528;BME280;62320;51.520;6.818;2023-08-07T19:52:03;101180.25;;;16.31;87.65
4528;BME280;62320;51.520;6.818;2023-08-07T20:02:04;101192.63;;;16.20;87.64
4528;BME280;62320;51.520;6.818;2023-08-07T20:12:07;101189.28;;;16.12;87.70
4528;BME280;62320;51.520;6.818;2023-08-07T20:22:08;101188.59;;;16.01;88.12
4528;BME280;62320;51.520;6.818;2023-08-07T20:32:10;101167.00;;;15.92;89.17
4528;BME280;62320;51.520;6.818;2023-08-07T20:42:12;101163.72;;;15.79;89.27
4528;BME280;62320;51.520;6.818;2023-08-07T20:52:13;101153.44;;;15.68;89.12
4528;BME280;62320;51.520;6.818;2023-08-07T21:02:15;101166.59;;;15.61;89.55
4528;BME280;62320;51.520;6.818;2023-08-07T21:12:16;101145.78;;;15.58;89.37
4528;BME280;62320;51.520;6.818;2023-08-07T21:22:18;101137.28;;;15.45;90.04
4528;BME280;62320;51.520;6.818;2023-08-07T21:32:20;101133.94;;;15.33;91.68
4528;BME280;62320;51.520;6.818;2023-08-07T21:42:22;101122.69;;;15.29;91.02
4528;BME280;62320;51.520;6.818;2023-08-07T21:52:24;101119.34;;;15.20;91.90
4528;BME280;62320;51.520;6.818;2023-08-07T22:02:26;101108.03;;;15.22;91.46
4528;BME280;62320;51.520;6.818;2023-08-07T22:12:28;101098.56;;;15.17;91.01
4528;BME280;62320;51.520;6.818;2023-08-07T22:22:29;101103.75;;;15.18;91.87
4528;BME280;62320;51.520;6.818;2023-08-07T22:32:31;101092.41;;;15.21;91.55
4528;BME280;62320;51.520;6.818;2023-08-07T22:42:32;101088.94;;;15.22;92.28
4528;BME280;62320;51.520;6.818;2023-08-07T22:52:34;101081.13;;;15.22;91.41
4528;BME280;62320;51.520;6.818;2023-08-07T23:02:36;101074.16;;;15.24;91.69
4528;BME280;62320;51.520;6.818;2023-08-07T23:12:37;101070.66;;;15.26;92.63
4528;BME280;62320;51.520;6.818;2023-08-07T23:22:39;101056.75;;;15.26;92.19
4528;BME280;62320;51.520;6.818;2023-08-07T23:32:40;101040.31;;;15.21;93.02
4528;BME280;62320;51.520;6.818;2023-08-07T23:42:43;101029.91;;;15.21;92.27
4528;BME280;62320;51.520;6.818;2023-08-07T23:52:44;101019.50;;;15.18;92.52
